Altamont, Kansas
Current Conditions -  °F | °C
As of 11:52 AM on Wednesday 28 Jan 2015 (Local Time) from KPPF Reporting Station
Clear Clear  
Wind Chill: 21°   Ceiling: Unl
Heat Index: 21°   Visibility: 10mi
Dew Point:   Wind: 15mph
Humidity: 33%   Direction: 180°S
Pressure: 29.91"   Gusts: 25mph
Location:  37.19°N, 95.3°W
Report Text: KPPF 281752Z AUTO 18013G22KT 10SM CLR 21/04 A2991 RMK AO2 SLP124 T02110044 10211 20061 58026
Loading
Personal Weather Stations






























Interactive Weather Map New forecast layout! Learn more

10-Day Weather Forecast

Advertisements
Track Severe Weather on mobile